Terminal Aerodrome Forecast
Issued by NWS

Home | Current Version | Previous Version | Text Only | Print | Product List | Glossary On
Versions: 1 2 3 4 5 6 7 8 9 10 11 12 13 14 15 16 17 18 19 20 21
314
FTUS43 KDLH 070539
TAFHIB
TAF
KHIB 070539Z 0706/0806 15005KT 5SM -SN BR SCT006 OVC050
      WS020/26040KT
     FM071000 23008KT 4SM -SN BR SCT006 OVC015
     FM071300 25008KT 2SM -SN BR OVC008
     FM072100 32013G22KT 3SM -SN BR OVC010
     FM080000 32017G27KT 5SM -SN BR OVC015=

USA.gov is the U.S. government's official web portal to all federal, state and local government web resources and services.